Terminal Aerodrome Forecast
Issued by NWS

Home | Current Version | Previous Version | Graphics & Text | Print | Product List | Glossary On
Versions: 1 2 3 4 5 6 7 8 9 10 11 12 13 14 15 16 17 18 19 20 21 22 23 24
000
FTUS43 KDDC 241720
TAFHYS
TAF
KHYS 241720Z 2418/2518 32011KT P6SM OVC012
     FM242000 30014G22KT P6SM BKN040
     FM250000 32019G27KT P6SM BKN120=

USA.gov is the U.S. government's official web portal to all federal, state and local government web resources and services.